Time;durP1;ratioP1;P1;durP2;ratioP2;P2;SDS_P1;SDS_P2;PMS_P1;PMS_P2;Temp;Humidity;BMP_temperature;BMP_pressure;BME280_temperature;BME280_humidity;BME280_pressure;Samples;Min_cycle;Max_cycle;Signal;HPM_P1;HPM_P2
2023/04/27 00:00:19;;;;;;;6.97;4.03;;;9.50;56.90;;;12.70;39.29;97682.97;5030095;28;20041;-37
2023/04/27 00:02:46;;;;;;;7.23;3.23;;;9.50;56.80;;;12.68;39.56;97685.81;5031715;28;20042;-37
2023/04/27 00:05:15;;;;;;;6.80;3.60;;;9.50;56.90;;;12.69;39.66;97682.13;5030960;28;20124;-37
2023/04/27 00:07:42;;;;;;;9.90;3.83;;;9.40;56.30;;;12.67;39.65;97680.63;5030934;28;20045;-37
2023/04/27 00:10:11;;;;;;;4.07;3.40;;;9.40;56.40;;;12.67;39.34;97678.78;5030882;28;20053;-37
2023/04/27 00:12:40;;;;;;;6.60;3.67;;;9.50;56.20;;;12.66;39.65;97678.97;5029785;28;20050;-37
2023/04/27 00:15:09;;;;;;;9.20;3.80;;;9.40;56.10;;;12.61;39.54;97672.31;5031242;28;20057;-37
2023/04/27 00:17:37;;;;;;;4.97;3.33;;;9.30;56.30;;;12.61;39.68;97674.97;5046029;28;20045;-37
2023/04/27 00:20:07;;;;;;;6.73;3.73;;;9.40;57.10;;;12.57;39.95;97671.00;5031011;28;20050;-37
2023/04/27 00:22:35;;;;;;;5.63;3.43;;;9.30;57.80;;;12.56;40.26;97664.00;5031140;28;20053;-37
2023/04/27 00:25:03;;;;;;;8.03;3.57;;;9.30;57.90;;;12.58;40.19;97666.47;5031110;28;20049;-37
2023/04/27 00:27:30;;;;;;;7.93;3.30;;;9.30;58.30;;;12.55;40.17;97669.50;5030580;28;20115;-37
2023/04/27 00:29:58;;;;;;;4.50;3.50;;;9.30;58.10;;;12.55;40.59;97672.19;5030699;28;20060;-37
2023/04/27 00:32:26;;;;;;;8.33;3.43;;;9.30;57.80;;;12.52;40.30;97667.16;5030876;28;20037;-37
2023/04/27 00:34:54;;;;;;;10.83;6.37;;;9.30;58.70;;;12.50;40.26;97663.84;5046148;28;20050;-37
2023/04/27 00:37:21;;;;;;;7.80;5.03;;;9.30;57.50;;;12.56;40.25;97665.81;5030633;28;20079;-37
2023/04/27 00:39:49;;;;;;;7.83;4.83;;;9.30;57.80;;;12.58;40.33;97664.66;5037430;28;20049;-37
2023/04/27 00:42:18;;;;;;;7.07;4.40;;;9.40;57.70;;;12.60;40.16;97665.31;5030650;28;20040;-37
2023/04/27 00:44:50;;;;;;;6.65;4.68;;;9.50;57.70;;;12.63;40.00;97655.28;5026944;28;20045;-37
2023/04/27 00:47:18;;;;;;;5.33;4.37;;;9.40;57.70;;;12.62;40.06;97657.13;5030132;28;20038;-37
2023/04/27 00:49:46;;;;;;;7.20;5.13;;;9.40;57.80;;;12.61;40.60;97660.78;5029105;28;20080;-37
2023/04/27 00:52:13;;;;;;;8.67;4.90;;;9.40;58.10;;;12.62;40.15;97651.78;5030799;28;20053;-37
2023/04/27 00:54:42;;;;;;;7.17;5.13;;;9.40;57.90;;;12.60;40.37;97656.44;5029650;28;20136;-37
2023/04/27 00:57:09;;;;;;;7.13;6.17;;;9.40;58.30;;;12.58;40.49;97656.66;5029108;28;20049;-37
2023/04/27 00:59:37;;;;;;;8.07;4.83;;;9.40;58.60;;;12.56;40.72;97661.34;5037340;28;20057;-37
2023/04/27 01:02:05;;;;;;;7.83;5.40;;;9.30;59.00;;;12.56;41.10;97664.00;5036761;28;20049;-37
2023/04/27 01:04:33;;;;;;;7.93;5.53;;;9.30;59.30;;;12.54;40.88;97663.34;5030029;28;20037;-37
2023/04/27 01:07:02;;;;;;;6.67;4.80;;;9.30;59.20;;;12.53;41.16;97659.00;5028573;28;20050;-37
2023/04/27 01:09:31;;;;;;;9.27;6.00;;;9.30;59.50;;;12.49;41.32;97656.84;5030433;28;20042;-37
2023/04/27 01:11:58;;;;;;;8.10;5.77;;;9.30;60.10;;;12.45;41.41;97658.22;5028955;28;20421;-37
2023/04/27 01:14:27;;;;;;;8.10;5.60;;;9.20;60.50;;;12.37;41.62;97664.41;5030409;28;20060;-37
2023/04/27 01:16:54;;;;;;;8.10;5.63;;;9.10;60.60;;;12.34;41.48;97659.41;5030142;28;20050;-37
2023/04/27 01:19:22;;;;;;;7.30;5.80;;;9.10;60.50;;;12.32;41.87;97664.91;5029194;28;20424;-37
2023/04/27 01:21:50;;;;;;;9.60;6.07;;;9.10;60.90;;;12.30;41.76;97664.25;5031634;28;20046;-37
2023/04/27 01:24:17;;;;;;;9.03;5.73;;;9.00;60.80;;;12.27;41.70;97663.75;5032871;28;20045;-37
2023/04/27 01:26:45;;;;;;;7.90;5.70;;;9.00;61.30;;;12.27;41.85;97667.28;5032277;28;20050;-37
2023/04/27 01:29:12;;;;;;;6.97;6.23;;;9.00;61.10;;;12.26;41.70;97668.25;5032022;28;20049;-37
2023/04/27 01:31:41;;;;;;;7.97;6.10;;;9.00;61.40;;;12.26;42.17;97665.59;5033869;28;20054;-37
2023/04/27 01:34:08;;;;;;;9.23;5.60;;;9.00;61.60;;;12.23;42.16;97660.59;5033510;28;20507;-37
2023/04/27 01:36:36;;;;;;;8.40;6.40;;;9.00;62.10;;;12.19;42.29;97672.59;5033377;28;20049;-37
2023/04/27 01:39:07;;;;;;;8.00;5.93;;;8.90;62.30;;;12.16;42.79;97664.97;5032585;28;20536;-37
2023/04/27 01:41:36;;;;;;;8.20;5.70;;;8.90;63.00;;;12.13;42.59;97657.28;5032054;28;20049;-37
2023/04/27 01:44:04;;;;;;;8.97;5.97;;;8.80;63.60;;;12.13;42.96;97659.97;5032697;28;20045;-37
2023/04/27 01:46:31;;;;;;;13.73;6.50;;;8.80;63.70;;;12.11;42.94;97654.78;5031181;28;20052;-37
2023/04/27 01:48:59;;;;;;;11.23;5.83;;;8.80;63.80;;;12.10;43.17;97665.66;5031882;28;20061;-37
2023/04/27 01:51:27;;;;;;;7.53;6.23;;;8.80;64.00;;;12.05;42.80;97663.47;5025743;28;20409;-37
2023/04/27 01:53:55;;;;;;;7.87;5.73;;;8.80;64.20;;;12.02;43.35;97663.84;5031765;28;20045;-37
2023/04/27 01:56:23;;;;;;;6.77;5.90;;;8.70;64.60;;;12.01;43.29;97662.97;5032001;28;20056;-37
2023/04/27 01:58:52;;;;;;;11.10;5.73;;;8.80;64.80;;;12.03;43.46;97668.16;5031797;28;20133;-37
2023/04/27 02:01:20;;;;;;;8.30;6.93;;;8.80;65.20;;;12.02;43.20;97678.00;5032072;28;20057;-37
2023/04/27 02:03:47;;;;;;;7.37;5.97;;;8.80;65.20;;;12.00;43.42;97671.19;5032406;28;20049;-37
2023/04/27 02:06:15;;;;;;;13.53;6.63;;;8.70;65.50;;;11.96;43.31;97670.69;5033215;28;20061;-37
2023/04/27 02:08:43;;;;;;;7.87;5.67;;;8.70;65.80;;;11.95;43.29;97670.84;5031898;28;20057;-37
2023/04/27 02:11:10;;;;;;;8.20;6.13;;;8.70;65.60;;;11.92;43.86;97673.84;5031684;28;20080;-37
2023/04/27 02:13:38;;;;;;;10.07;6.50;;;8.70;66.20;;;11.90;44.21;97668.66;5031670;28;20050;-37
2023/04/27 02:16:06;;;;;;;8.07;5.67;;;8.60;66.70;;;11.89;44.30;97661.69;5031871;28;20417;-37
2023/04/27 02:18:34;;;;;;;8.90;6.23;;;8.70;67.00;;;11.89;44.12;97669.69;5033001;28;20081;-36
2023/04/27 02:21:08;;;;;;;8.23;6.53;;;8.70;67.60;;;11.88;44.48;97662.63;5032795;28;20045;-37
2023/04/27 02:23:36;;;;;;;8.97;6.60;;;8.60;68.10;;;11.88;44.25;97670.63;5031355;28;20049;-37
2023/04/27 02:26:04;;;;;;;10.20;5.67;;;8.60;67.00;;;11.87;43.99;97677.00;5031229;28;20057;-37
2023/04/27 02:28:32;;;;;;;10.40;6.30;;;8.60;65.80;;;11.89;43.63;97680.34;5014559;28;20038;-36
2023/04/27 02:31:00;;;;;;;9.70;5.87;;;8.60;65.00;;;11.90;43.10;97679.34;5031411;28;20417;-37
2023/04/27 02:33:27;;;;;;;8.97;6.40;;;8.60;64.70;;;11.92;43.40;97679.16;5032628;28;20420;-37
2023/04/27 02:35:57;;;;;;;7.70;5.73;;;8.60;65.00;;;11.91;43.63;97685.53;5032164;28;20037;-37
2023/04/27 02:38:24;;;;;;;9.23;6.27;;;8.60;65.20;;;11.91;43.44;97682.84;5031128;28;20045;-37
2023/04/27 02:40:53;;;;;;;9.03;6.30;;;8.70;65.30;;;11.91;43.60;97685.53;5032472;28;20072;-36
2023/04/27 02:43:21;;;;;;;7.17;6.30;;;8.70;65.60;;;11.91;43.83;97686.34;5031249;28;20524;-37
2023/04/27 02:45:49;;;;;;;9.03;6.37;;;8.70;66.10;;;11.92;44.03;97681.84;5029888;28;20046;-36
2023/04/27 02:48:17;;;;;;;9.23;6.20;;;8.70;66.30;;;11.92;44.19;97685.34;5031679;28;20551;-37
2023/04/27 02:50:44;;;;;;;10.20;6.37;;;8.70;66.70;;;11.95;43.99;97685.00;5032347;28;20105;-37
2023/04/27 02:53:12;;;;;;;10.03;6.40;;;8.70;66.50;;;12.00;44.40;97689.84;5030860;28;20072;-37
2023/04/27 02:55:48;;;;;;;8.93;6.90;;;8.80;66.50;;;12.02;43.95;97693.19;5030518;28;20049;-37
2023/04/27 02:58:16;;;;;;;9.03;6.60;;;8.90;66.60;;;12.05;44.37;97692.00;5030567;28;20054;-37
2023/04/27 03:00:44;;;;;;;9.77;6.97;;;8.90;66.80;;;12.05;44.42;97684.00;5030983;28;20045;-36
2023/04/27 03:03:12;;;;;;;8.07;6.00;;;8.80;67.40;;;12.06;44.55;97689.16;5032009;28;20116;-36
2023/04/27 03:05:40;;;;;;;10.43;6.97;;;8.90;67.40;;;12.07;44.59;97687.31;5030530;28;20049;-37
2023/04/27 03:08:07;;;;;;;11.83;7.60;;;8.80;68.00;;;12.05;44.90;97690.16;5030527;28;20046;-37
2023/04/27 03:10:35;;;;;;;12.03;8.37;;;8.80;67.90;;;12.06;44.85;97689.16;5030100;28;20049;-37
2023/04/27 03:13:03;;;;;;;9.13;6.70;;;8.80;67.80;;;12.07;44.59;97688.16;5030166;28;20049;-36
2023/04/27 03:15:31;;;;;;;12.33;7.33;;;8.90;67.70;;;12.09;44.46;97690.66;5024045;28;20052;-36
2023/04/27 03:17:58;;;;;;;11.50;7.97;;;8.90;67.80;;;12.10;44.85;97687.81;5031296;28;20041;-37
2023/04/27 03:20:26;;;;;;;11.27;7.40;;;9.00;68.00;;;12.10;44.96;97682.50;5031414;28;20060;-36
2023/04/27 03:22:53;;;;;;;11.10;7.23;;;8.90;68.10;;;12.09;45.04;97699.47;5030445;28;20053;-37
2023/04/27 03:25:21;;;;;;;11.37;7.43;;;8.90;68.50;;;12.07;45.08;97690.81;5031526;28;20094;-37
2023/04/27 03:27:49;;;;;;;12.57;8.70;;;8.80;68.70;;;12.07;45.16;97690.00;5030301;28;20053;-36
2023/04/27 03:30:17;;;;;;;10.07;7.13;;;8.80;68.70;;;12.07;45.33;97679.31;5030264;28;20050;-37
2023/04/27 03:32:45;;;;;;;9.40;7.77;;;8.80;69.00;;;12.09;45.22;97678.13;5030191;28;20416;-36
2023/04/27 03:35:14;;;;;;;9.47;7.43;;;8.90;69.00;;;12.11;45.19;97691.31;5030198;28;20434;-37
2023/04/27 03:37:44;;;;;;;10.93;8.20;;;8.90;69.00;;;12.07;45.34;97687.31;5030577;28;20052;-37
2023/04/27 03:40:13;;;;;;;12.37;8.63;;;8.80;69.20;;;12.07;45.03;97684.66;5031940;28;20046;-37
2023/04/27 03:42:40;;;;;;;11.10;7.43;;;8.80;69.20;;;12.06;45.04;97694.50;5030348;28;20049;-37
2023/04/27 03:45:10;;;;;;;12.77;7.43;;;8.80;69.20;;;12.07;45.11;97687.31;5026284;28;20417;-37
2023/04/27 03:47:38;;;;;;;10.67;8.33;;;8.80;69.00;;;12.06;45.29;97693.66;5030101;28;20041;-37
2023/04/27 03:50:06;;;;;;;10.03;7.37;;;8.80;69.10;;;12.05;45.46;97687.50;5029909;28;20053;-37
2023/04/27 03:52:34;;;;;;;11.70;9.90;;;8.80;69.00;;;12.05;45.17;97687.50;5022404;28;20057;-36
2023/04/27 03:55:04;;;;;;;13.03;8.27;;;8.80;69.20;;;12.06;45.13;97697.19;5029848;28;20198;-37
2023/04/27 03:57:33;;;;;;;12.00;7.80;;;8.80;69.30;;;12.07;45.36;97698.00;5030025;28;20056;-36
2023/04/27 04:00:00;;;;;;;11.70;7.27;;;8.90;69.40;;;12.09;45.32;97693.31;5030089;28;20057;-37
2023/04/27 04:02:28;;;;;;;10.27;8.37;;;8.90;69.40;;;12.09;45.42;97686.16;5029902;28;20143;-37
2023/04/27 04:04:57;;;;;;;10.73;7.53;;;8.90;69.30;;;12.08;45.67;97689.84;5013784;28;20057;-37
2023/04/27 04:07:24;;;;;;;10.40;7.60;;;8.90;69.40;;;12.09;45.63;97690.66;5030076;28;20053;-37
2023/04/27 04:09:52;;;;;;;9.73;7.23;;;8.90;69.70;;;12.08;45.51;97688.97;5031016;28;20072;-37
2023/04/27 04:12:19;;;;;;;10.53;7.17;;;8.90;69.50;;;12.08;45.39;97692.50;5030842;28;20057;-37
2023/04/27 04:14:47;;;;;;;11.37;7.50;;;8.90;69.10;;;12.07;45.71;97690.00;5029402;28;20061;-37
2023/04/27 04:17:15;;;;;;;8.57;6.77;;;8.90;69.30;;;12.06;45.81;97696.31;5029073;28;20527;-37
2023/04/27 04:19:43;;;;;;;11.70;7.37;;;8.90;70.40;;;12.00;46.03;97697.84;5031163;28;20064;-37
2023/04/27 04:22:11;;;;;;;12.03;8.37;;;8.70;71.50;;;11.96;46.45;97700.03;5029240;28;20050;-37
2023/04/27 04:24:40;;;;;;;10.60;7.00;;;8.70;72.30;;;11.95;46.52;97703.69;5029603;28;20425;-36
2023/04/27 04:27:08;;;;;;;13.00;7.47;;;8.70;73.70;;;11.95;46.42;97697.53;5029581;28;20496;-37
2023/04/27 04:29:36;;;;;;;9.80;6.70;;;8.60;72.90;;;11.96;46.59;97700.03;5022088;28;20049;-37
2023/04/27 04:32:06;;;;;;;9.47;6.93;;;8.70;73.30;;;11.96;46.24;97704.50;5029301;28;20057;-37
2023/04/27 04:34:34;;;;;;;12.33;6.53;;;8.70;73.40;;;11.96;46.73;97697.34;5029796;28;20220;-37
2023/04/27 04:37:03;;;;;;;9.07;7.40;;;8.70;73.30;;;11.99;46.76;97704.19;5029084;28;20057;-37
2023/04/27 04:39:32;;;;;;;9.10;6.30;;;8.80;73.20;;;12.00;46.17;97709.34;5029330;28;20052;-37
2023/04/27 04:41:59;;;;;;;9.33;6.90;;;8.70;72.70;;;11.97;46.38;97704.34;5029058;28;20409;-36
2023/04/27 04:44:30;;;;;;;11.47;6.20;;;8.80;72.60;;;11.95;46.20;97698.34;5029539;28;22697;-36
2023/04/27 04:46:57;;;;;;;12.03;6.70;;;8.70;72.40;;;11.96;46.19;97694.69;5030272;28;20444;-36
2023/04/27 04:49:26;;;;;;;7.87;6.00;;;8.70;72.40;;;11.99;46.11;97704.19;5029801;28;20042;-36
2023/04/27 04:51:53;;;;;;;12.87;8.27;;;8.80;71.90;;;12.01;45.96;97699.50;5028777;28;20053;-37
2023/04/27 04:54:21;;;;;;;10.97;6.97;;;8.80;71.20;;;12.04;45.93;97698.31;5029008;28;20065;-37
2023/04/27 04:56:49;;;;;;;10.37;8.00;;;8.80;71.00;;;12.07;45.56;97701.50;5031942;28;20053;-36
2023/04/27 04:59:16;;;;;;;11.03;7.73;;;8.90;69.80;;;12.10;45.86;97705.69;5034352;28;20056;-37
2023/04/27 05:01:44;;;;;;;6.23;5.03;;;9.00;69.40;;;12.12;45.48;97704.50;5032672;28;20056;-37
2023/04/27 05:04:12;;;;;;;9.37;5.13;;;9.00;68.30;;;12.10;45.64;97703.00;5033876;28;20072;-37
2023/04/27 05:06:40;;;;;;;7.77;4.97;;;9.10;68.00;;;12.12;45.61;97709.84;5033955;28;20049;-37
2023/04/27 05:09:07;;;;;;;8.93;5.20;;;9.20;67.50;;;12.10;45.18;97709.16;5034241;28;20041;-36
2023/04/27 05:11:35;;;;;;;8.63;5.10;;;9.30;67.00;;;12.04;45.43;97707.19;5033908;28;20042;-37
2023/04/27 05:14:02;;;;;;;8.97;5.43;;;9.30;66.50;;;12.07;45.45;97706.84;5033879;28;20060;-37
2023/04/27 05:16:30;;;;;;;5.97;4.77;;;9.30;66.70;;;12.14;45.56;97704.34;5035100;28;20505;-37
2023/04/27 05:19:00;;;;;;;8.30;5.63;;;9.30;67.10;;;12.21;45.17;97708.81;5016916;28;20048;-46
2023/04/27 05:21:28;;;;;;;9.27;5.23;;;9.20;67.50;;;12.27;45.42;97707.31;5033936;28;20041;-46
2023/04/27 05:23:55;;;;;;;11.07;5.03;;;9.30;67.80;;;12.34;45.53;97718.13;5033729;28;20060;-45
2023/04/27 05:26:23;;;;;;;8.37;5.50;;;9.30;67.80;;;12.37;45.49;97715.13;5032949;28;20046;-45
2023/04/27 05:28:51;;;;;;;12.83;6.20;;;9.30;67.60;;;12.43;45.56;97717.13;5032826;28;20448;-46
2023/04/27 05:31:18;;;;;;;9.97;5.43;;;9.40;67.80;;;12.46;45.35;97724.75;5033598;28;20044;-44
2023/04/27 05:33:46;;;;;;;8.33;5.33;;;9.40;67.70;;;12.49;45.18;97721.75;5033743;28;20057;-49
2023/04/27 05:36:13;;;;;;;8.87;5.70;;;9.40;67.70;;;12.55;45.29;97728.25;5033231;28;20049;-45
2023/04/27 05:38:42;;;;;;;8.87;5.20;;;9.50;67.80;;;12.58;45.29;97723.41;5032189;28;20049;-46
2023/04/27 05:41:09;;;;;;;7.77;5.00;;;9.50;67.80;;;12.60;45.13;97729.41;5033464;28;20065;-45
2023/04/27 05:43:37;;;;;;;13.80;6.00;;;9.50;68.20;;;12.64;45.56;97732.56;5033327;28;20050;-47
2023/04/27 05:46:05;;;;;;;8.37;5.47;;;9.60;68.00;;;12.65;45.26;97736.06;5033053;28;20045;-48
2023/04/27 05:48:32;;;;;;;9.87;6.30;;;9.60;67.60;;;12.66;45.38;97729.72;5033427;28;20493;-46
2023/04/27 05:51:01;;;;;;;7.07;4.83;;;9.70;67.60;;;12.66;45.48;97730.56;5032537;28;20037;-45
2023/04/27 05:53:31;;;;;;;7.87;6.03;;;9.70;67.30;;;12.68;45.55;97733.03;5033457;28;20440;-43
2023/04/27 05:56:00;;;;;;;8.03;5.67;;;9.80;67.30;;;12.73;45.49;97741.38;5031733;28;20041;-43
2023/04/27 05:58:27;;;;;;;7.90;5.40;;;9.90;67.30;;;12.76;45.54;97733.84;5032105;28;20037;-45
2023/04/27 06:00:56;;;;;;;7.20;5.27;;;9.90;67.10;;;12.75;45.47;97737.53;5033140;28;20048;-45
2023/04/27 06:03:24;;;;;;;12.40;5.63;;;9.90;66.60;;;12.66;45.69;97743.06;5033102;28;20037;-47
2023/04/27 06:05:56;;;;;;;9.87;5.77;;;9.90;66.60;;;12.70;45.63;97749.75;5032517;28;20405;-47
2023/04/27 06:08:26;;;;;;;9.10;6.13;;;9.90;67.00;;;12.74;45.78;97746.56;5032597;28;20052;-46
2023/04/27 06:10:54;;;;;;;10.23;5.47;;;9.90;66.80;;;12.84;45.65;97749.03;5033163;28;20041;-46
2023/04/27 06:13:21;;;;;;;8.60;5.07;;;10.00;66.80;;;12.95;45.27;97748.66;5031517;28;20133;-47
2023/04/27 06:15:49;;;;;;;11.70;7.30;;;10.10;66.50;;;13.00;45.23;97742.78;5032679;28;20052;-50
2023/04/27 06:18:17;;;;;;;7.63;5.33;;;10.10;66.20;;;12.99;45.25;97752.63;5033209;28;20060;-46
2023/04/27 06:20:45;;;;;;;8.63;5.80;;;10.20;66.10;;;13.03;45.19;97757.63;5032748;28;20048;-47
2023/04/27 06:23:13;;;;;;;7.40;5.57;;;10.20;66.20;;;13.08;45.05;97760.59;5032729;28;20034;-43
2023/04/27 06:25:40;;;;;;;9.03;5.60;;;10.20;66.00;;;13.12;44.94;97752.06;5032764;28;20037;-46
2023/04/27 06:28:08;;;;;;;8.43;6.77;;;10.30;65.60;;;13.22;45.01;97757.19;5031396;28;20037;-46
2023/04/27 06:30:35;;;;;;;8.10;5.57;;;10.30;66.00;;;13.31;44.85;97758.84;5032497;28;20103;-47
2023/04/27 06:33:05;;;;;;;8.80;6.60;;;10.40;65.70;;;13.40;44.63;97759.66;5032669;28;20049;-44
2023/04/27 06:35:33;;;;;;;9.30;6.60;;;10.40;65.40;;;13.48;44.89;97754.25;5032390;28;20049;-48
2023/04/27 06:38:01;;;;;;;9.23;5.33;;;10.50;65.80;;;13.54;44.39;97761.53;5029586;28;20041;-45
2023/04/27 06:40:29;;;;;;;8.87;5.50;;;10.60;65.20;;;13.57;44.18;97760.34;5032635;28;20041;-45
2023/04/27 06:42:56;;;;;;;8.60;6.13;;;10.60;64.50;;;13.63;44.35;97766.84;5032288;28;20040;-46
2023/04/27 06:45:24;;;;;;;7.67;4.80;;;10.60;64.80;;;13.70;43.98;97760.59;5028896;28;20057;-45
2023/04/27 06:47:51;;;;;;;8.77;5.27;;;10.70;63.80;;;13.77;43.66;97766.09;5022199;28;20092;-45
2023/04/27 06:50:19;;;;;;;7.80;5.13;;;10.80;63.50;;;13.79;43.61;97770.25;5024200;28;20509;-45
2023/04/27 06:52:46;;;;;;;9.10;5.10;;;10.90;63.10;;;13.85;43.53;97775.91;5022213;28;20050;-43
2023/04/27 06:55:14;;;;;;;9.30;5.00;;;11.00;62.20;;;13.94;43.65;97777.50;5032177;28;20049;-46
2023/04/27 06:57:42;;;;;;;8.13;5.20;;;11.00;62.30;;;14.02;43.09;97774.75;5031797;28;20505;-47
2023/04/27 07:00:12;;;;;;;7.40;4.83;;;11.10;61.40;;;14.09;42.86;97773.00;5032263;28;20508;-45
2023/04/27 07:02:39;;;;;;;7.07;4.87;;;11.10;61.50;;;14.17;42.87;97774.78;5031744;28;20045;-46
2023/04/27 07:05:07;;;;;;;7.95;5.03;;;11.20;61.30;;;14.22;42.63;97777.75;5031749;28;20029;-46
2023/04/27 07:07:35;;;;;;;9.83;5.30;;;11.30;60.80;;;14.23;42.65;97776.75;5030535;28;20045;-45
2023/04/27 07:10:03;;;;;;;5.97;4.67;;;11.40;60.10;;;14.26;42.63;97772.88;5031956;28;20052;-47
2023/04/27 07:12:30;;;;;;;8.00;5.03;;;11.40;59.90;;;14.31;42.38;97775.84;5032249;28;20127;-46
2023/04/27 07:14:58;;;;;;;7.57;5.13;;;11.40;59.90;;;14.32;42.05;97766.78;5031626;28;20049;-46
2023/04/27 07:17:25;;;;;;;6.87;4.67;;;11.50;59.20;;;14.21;42.42;97770.75;5031104;28;20045;-48
2023/04/27 07:19:53;;;;;;;9.27;5.33;;;11.40;59.00;;;14.18;42.08;97766.56;5031028;28;20045;-45
2023/04/27 07:22:21;;;;;;;9.40;4.67;;;11.40;58.80;;;14.22;42.07;97766.22;5031814;28;20037;-45
2023/04/27 07:24:49;;;;;;;6.18;4.28;;;11.40;58.90;;;14.27;41.79;97769.16;5031145;28;20041;-45
2023/04/27 07:27:17;;;;;;;7.20;5.47;;;11.40;59.00;;;14.34;42.28;97775.47;5030148;28;20040;-44
2023/04/27 07:29:46;;;;;;;9.97;4.30;;;11.40;59.50;;;14.37;42.01;97770.59;5023562;28;20052;-46
2023/04/27 07:32:13;;;;;;;10.45;5.13;;;11.40;59.40;;;14.40;42.23;97769.38;5031407;28;20045;-45
2023/04/27 07:34:41;;;;;;;11.10;5.47;;;11.40;59.70;;;14.45;42.17;97774.22;5031285;28;20049;-48
2023/04/27 07:37:21;;;;;;;7.97;5.00;;;11.50;59.90;;;14.47;42.19;97766.81;5031110;28;20048;-47
2023/04/27 07:39:51;;;;;;;7.68;5.05;;;11.50;59.80;;;14.48;42.17;97763.13;5031387;28;20045;-45
2023/04/27 07:42:21;;;;;;;7.73;4.93;;;11.60;59.70;;;14.48;42.13;97768.47;5030618;28;20049;-48
2023/04/27 07:44:49;;;;;;;8.10;4.13;;;11.50;59.80;;;14.51;42.11;97768.13;5014619;28;20048;-46
2023/04/27 07:47:17;;;;;;;9.23;4.90;;;11.60;59.70;;;14.52;41.87;97765.25;5025166;28;20056;-45
2023/04/27 07:49:45;;;;;;;7.57;5.30;;;11.60;59.30;;;14.54;41.78;97759.72;5023468;28;20061;-46
2023/04/27 07:52:13;;;;;;;7.80;4.55;;;11.60;59.10;;;14.56;42.05;97758.56;5023522;28;20104;-48
2023/04/27 07:54:41;;;;;;;9.00;5.03;;;11.70;59.30;;;14.61;41.97;97759.84;5025380;28;20416;-45
2023/04/27 07:57:10;;;;;;;11.73;6.07;;;11.70;59.40;;;14.62;42.17;97767.69;5029987;28;20211;-45
2023/04/27 07:59:39;;;;;;;7.20;5.82;;;11.70;59.70;;;14.65;42.47;97759.28;5031271;28;20053;-46
2023/04/27 08:02:06;;;;;;;8.70;6.00;;;11.80;60.00;;;14.70;42.37;97764.09;5031148;28;20041;-48
2023/04/27 08:04:47;;;;;;;7.00;5.50;;;11.90;60.10;;;14.77;42.36;97754.28;5029620;28;20045;-46
2023/04/27 08:07:16;;;;;;;6.57;5.20;;;11.90;59.90;;;14.80;42.42;97761.97;5029432;28;20050;-46
2023/04/27 08:09:44;;;;;;;10.98;6.28;;;12.00;59.80;;;14.84;42.17;97760.56;5029774;28;20046;-48
2023/04/27 08:12:12;;;;;;;6.93;5.37;;;12.10;59.80;;;14.89;42.31;97758.19;5031192;28;20465;-45
2023/04/27 08:14:39;;;;;;;8.30;5.80;;;12.20;59.90;;;14.93;41.99;97759.47;5030792;28;20050;-45
2023/04/27 08:17:07;;;;;;;7.03;5.28;;;12.20;59.00;;;14.98;42.08;97758.06;5031466;28;20075;-46
2023/04/27 08:19:35;;;;;;;9.95;5.70;;;12.20;59.10;;;15.03;42.02;97759.19;5030698;28;20053;-47
2023/04/27 08:22:02;;;;;;;9.18;5.55;;;12.30;59.00;;;15.07;41.92;97754.28;5030934;28;20056;-45
2023/04/27 08:24:30;;;;;;;10.13;5.47;;;12.30;58.80;;;15.12;42.03;97762.56;5029229;28;20037;-48
2023/04/27 08:26:58;;;;;;;7.80;5.45;;;12.40;59.00;;;15.16;41.78;97747.81;5030723;28;20421;-46
2023/04/27 08:29:25;;;;;;;9.05;5.85;;;12.40;58.90;;;15.20;41.99;97748.22;5031774;28;20044;-47
2023/04/27 08:31:59;;;;;;;8.77;5.57;;;12.40;59.00;;;15.22;41.91;97752.41;5035074;28;20041;-46
2023/04/27 08:34:28;;;;;;;9.15;5.28;;;12.50;58.60;;;15.28;41.79;97750.81;5016159;28;20413;-47
2023/04/27 08:36:56;;;;;;;8.20;6.37;;;12.50;58.10;;;15.29;41.80;97752.47;5033618;28;20048;-47
2023/04/27 08:39:24;;;;;;;8.95;5.63;;;12.60;58.30;;;15.26;41.48;97742.16;5033538;28;20048;-48
2023/04/27 08:41:52;;;;;;;8.77;5.97;;;12.60;57.70;;;15.27;41.87;97741.09;5034634;28;20065;-47
2023/04/27 08:44:20;;;;;;;6.68;5.18;;;12.60;58.10;;;15.32;41.35;97742.19;5033109;28;20041;-46
2023/04/27 08:46:47;;;;;;;7.88;5.15;;;12.70;57.40;;;15.40;41.03;97745.81;5034417;28;20505;-47
2023/04/27 08:49:15;;;;;;;7.90;4.93;;;12.70;56.80;;;15.47;40.69;97744.84;5034693;28;20046;-46
2023/04/27 08:51:44;;;;;;;8.18;4.90;;;12.80;56.50;;;15.56;40.19;97740.19;5032698;28;20212;-45
2023/04/27 08:54:11;;;;;;;8.38;5.05;;;12.80;55.50;;;15.62;40.25;97742.09;5034451;28;20042;-46
2023/04/27 08:56:39;;;;;;;9.05;6.25;;;12.90;55.70;;;15.71;40.19;97737.47;5033842;28;20256;-47
2023/04/27 08:59:14;;;;;;;7.65;5.60;;;13.00;55.70;;;15.71;39.77;97742.81;5034449;28;20056;-47
2023/04/27 09:01:47;;;;;;;7.90;4.63;;;13.10;52.60;;;15.58;37.62;97734.63;5034371;28;20046;-48
2023/04/27 09:04:16;;;;;;;8.05;4.72;;;12.90;50.40;;;15.61;38.33;97735.09;5032986;28;20041;-47
2023/04/27 09:06:45;;;;;;;6.90;4.75;;;12.80;52.30;;;15.63;37.74;97746.47;5034147;28;20053;-45
2023/04/27 09:09:22;;;;;;;4.55;2.97;;;12.90;49.20;;;15.69;36.94;97748.38;5034352;28;20493;-45
2023/04/27 09:11:50;;;;;;;5.03;3.63;;;12.90;48.20;;;15.58;36.36;97748.06;5034267;28;20049;-46
2023/04/27 09:14:21;;;;;;;6.68;4.55;;;12.90;47.80;;;15.55;37.94;97754.63;5033849;28;20045;-45
2023/04/27 09:16:58;;;;;;;6.80;4.82;;;12.90;51.30;;;15.73;38.10;97752.38;5033979;28;20041;-45
2023/04/27 09:19:27;;;;;;;6.10;3.85;;;13.10;50.30;;;15.79;36.89;97747.25;5033971;28;20045;-47
2023/04/27 09:22:10;;;;;;;6.28;4.55;;;13.10;48.40;;;15.78;36.60;97751.81;5034109;28;20052;-45
2023/04/27 09:24:48;;;;;;;7.47;3.72;;;13.10;47.00;;;15.77;36.33;97749.31;5033407;28;20061;-46
2023/04/27 09:27:23;;;;;;;7.68;3.58;;;13.10;47.30;;;15.64;36.04;97748.09;5033570;28;20037;-46
2023/04/27 09:29:50;;;;;;;5.25;3.67;;;13.10;47.60;;;15.72;36.94;97750.69;5033612;28;20045;-44
2023/04/27 09:32:21;;;;;;;5.88;4.57;;;13.20;48.90;;;15.79;36.87;97747.25;5033777;28;20556;-45
2023/04/27 09:34:49;;;;;;;8.13;4.32;;;13.20;48.70;;;15.91;37.22;97756.47;5034396;28;20053;-45
2023/04/27 09:37:17;;;;;;;8.38;4.10;;;13.30;49.90;;;16.00;37.12;97755.31;5034072;28;20045;-45
2023/04/27 09:39:45;;;;;;;8.10;4.28;;;13.40;49.30;;;16.02;36.58;97750.56;5032499;28;20049;-45
2023/04/27 09:42:12;;;;;;;6.45;4.55;;;13.40;48.30;;;15.98;36.06;97751.16;5031792;28;20041;-46
2023/04/27 09:44:40;;;;;;;6.00;4.07;;;13.40;48.00;;;16.04;36.27;97755.75;5033500;28;20386;-46
2023/04/27 09:47:09;;;;;;;7.03;4.80;;;13.40;48.40;;;16.09;36.38;97747.94;5029457;28;20382;-44
2023/04/27 09:49:37;;;;;;;6.35;3.97;;;13.50;47.60;;;15.93;36.10;97743.66;5033563;28;20405;-47
2023/04/27 09:52:05;;;;;;;6.22;3.88;;;13.40;47.40;;;16.07;36.53;97741.91;5033581;28;20037;-45
2023/04/27 09:54:34;;;;;;;8.50;4.18;;;13.50;48.80;;;15.99;36.25;97740.22;5033184;28;20053;-47
2023/04/27 09:57:28;;;;;;;7.85;5.10;;;13.50;47.20;;;15.96;35.93;97747.84;5031360;28;20046;-45
2023/04/27 10:00:20;;;;;;;8.13;5.15;;;13.40;46.30;;;15.87;35.84;97747.13;5009348;28;20048;-47
2023/04/27 10:03:25;;;;;;;6.32;3.95;;;13.30;46.20;;;15.99;35.94;97742.88;5032015;28;20045;-47
2023/04/27 10:06:27;;;;;;;6.15;3.40;;;13.30;46.20;;;16.12;36.21;97743.00;5024116;28;20523;-47
2023/04/27 10:08:58;;;;;;;7.57;4.10;;;13.40;47.70;;;16.22;36.04;97739.16;5025255;28;20408;-47
2023/04/27 10:11:48;;;;;;;5.47;4.70;;;13.60;47.40;;;16.29;36.14;97748.09;5033221;28;20037;-46
2023/04/27 10:14:18;;;;;;;5.50;3.72;;;13.70;47.40;;;16.41;36.28;97741.16;5026668;28;20045;-45
2023/04/27 10:16:55;;;;;;;8.32;4.20;;;13.80;48.30;;;16.28;34.88;97743.75;5033048;28;20056;-46
2023/04/27 10:19:24;;;;;;;7.47;3.92;;;13.90;46.20;;;16.36;35.72;97742.78;5031747;28;20500;-45
2023/04/27 10:22:02;;;;;;;7.25;4.20;;;13.90;46.90;;;16.44;35.50;97746.16;5032783;28;20045;-45
2023/04/27 10:24:37;;;;;;;9.52;4.95;;;13.90;46.10;;;16.57;35.16;97750.78;5031538;28;20401;-46
2023/04/27 10:27:07;;;;;;;6.93;4.10;;;13.90;45.50;;;16.54;34.78;97743.94;5032567;28;20064;-49
2023/04/27 10:29:42;;;;;;;5.80;4.03;;;13.90;45.80;;;16.60;35.41;97749.56;5031337;28;20045;-46